createdAt,value
2023-03-30T00:01:43.156Z,13.05
2023-03-30T00:04:09.603Z,13.11
2023-03-30T00:06:35.954Z,13.09
2023-03-30T00:09:02.232Z,13.07
2023-03-30T00:11:28.504Z,13.07
2023-03-30T00:13:54.802Z,13.02
2023-03-30T00:16:21.154Z,12.97
2023-03-30T00:18:47.463Z,12.93
2023-03-30T00:21:13.759Z,12.92
2023-03-30T00:23:40.054Z,12.85
2023-03-30T00:26:06.436Z,12.85
2023-03-30T00:28:32.700Z,12.83
2023-03-30T00:30:58.960Z,12.57
2023-03-30T00:33:37.276Z,12.71
2023-03-30T00:36:10.780Z,12.74
2023-03-30T00:38:37.107Z,12.73
2023-03-30T00:41:03.605Z,12.72
2023-03-30T00:43:30.009Z,12.77
2023-03-30T00:45:56.326Z,12.75
2023-03-30T00:48:22.644Z,12.83
2023-03-30T00:50:48.899Z,12.87
2023-03-30T00:53:15.170Z,12.87
2023-03-30T00:55:41.473Z,12.83
2023-03-30T00:58:07.713Z,12.82
2023-03-30T01:00:33.997Z,12.82
2023-03-30T01:03:00.388Z,12.81
2023-03-30T01:05:26.720Z,12.81
2023-03-30T01:07:52.986Z,12.86
2023-03-30T01:10:19.268Z,12.82
2023-03-30T01:12:45.536Z,12.83
2023-03-30T01:15:11.820Z,12.79
2023-03-30T01:17:38.178Z,12.77
2023-03-30T01:20:04.469Z,12.80
2023-03-30T01:22:30.745Z,12.84
2023-03-30T01:24:57.062Z,12.81
2023-03-30T01:27:23.350Z,12.80
2023-03-30T01:29:49.683Z,12.76
2023-03-30T01:32:15.947Z,12.69
2023-03-30T01:34:42.202Z,12.67
2023-03-30T01:37:08.460Z,12.61
2023-03-30T01:39:34.715Z,12.61
2023-03-30T01:42:00.981Z,12.57
2023-03-30T01:44:27.249Z,12.55
2023-03-30T01:46:53.678Z,12.45
2023-03-30T01:49:20.048Z,12.47
2023-03-30T01:51:46.316Z,12.41
2023-03-30T01:54:12.639Z,12.40
2023-03-30T01:56:38.922Z,12.39
2023-03-30T01:59:05.175Z,12.38
2023-03-30T02:01:31.517Z,12.34
2023-03-30T02:03:58.024Z,12.31
2023-03-30T02:06:24.385Z,12.31
2023-03-30T02:08:50.682Z,12.28
2023-03-30T02:11:16.937Z,12.25
2023-03-30T02:13:43.225Z,12.21
2023-03-30T02:16:09.581Z,12.20
2023-03-30T02:18:35.908Z,12.18
2023-03-30T02:21:02.471Z,12.15
2023-03-30T02:23:28.878Z,12.17
2023-03-30T02:25:55.127Z,12.17
2023-03-30T02:28:21.382Z,12.17
2023-03-30T02:30:47.677Z,12.11
2023-03-30T02:33:13.968Z,12.12
2023-03-30T02:35:40.287Z,12.07
2023-03-30T02:38:06.571Z,12.11
2023-03-30T02:40:32.816Z,12.15
2023-03-30T02:42:59.144Z,12.16
2023-03-30T02:45:25.448Z,12.13
2023-03-30T02:47:51.728Z,12.11
2023-03-30T02:50:18.042Z,12.13
2023-03-30T02:52:44.306Z,12.19
2023-03-30T02:55:10.609Z,12.15
2023-03-30T02:57:36.926Z,12.14
2023-03-30T03:00:03.184Z,12.15
2023-03-30T03:02:29.485Z,12.13
2023-03-30T03:04:55.888Z,12.11
2023-03-30T03:07:22.166Z,12.05
2023-03-30T03:09:48.498Z,11.89
2023-03-30T03:12:14.803Z,11.75
2023-03-30T03:14:41.118Z,11.78
2023-03-30T03:17:07.442Z,11.80
2023-03-30T03:19:33.774Z,11.81
2023-03-30T03:22:00.065Z,11.81
2023-03-30T03:24:26.403Z,11.81
2023-03-30T03:26:52.795Z,11.82
2023-03-30T03:29:19.056Z,11.82
2023-03-30T03:31:45.383Z,11.82
2023-03-30T03:34:11.655Z,11.81
2023-03-30T03:36:37.952Z,11.81
2023-03-30T03:39:04.282Z,11.80
2023-03-30T03:41:30.606Z,11.81
2023-03-30T03:43:56.874Z,11.84
2023-03-30T03:46:23.201Z,11.83
2023-03-30T03:48:49.568Z,11.85
2023-03-30T03:51:15.853Z,11.85
2023-03-30T03:53:42.324Z,11.86
2023-03-30T03:56:08.583Z,11.87
2023-03-30T03:58:34.845Z,11.89
2023-03-30T04:01:01.326Z,11.87
2023-03-30T04:03:27.693Z,11.88
2023-03-30T04:05:53.947Z,11.89
2023-03-30T04:08:20.201Z,11.91
2023-03-30T04:10:46.453Z,11.94
2023-03-30T04:13:12.743Z,11.95
2023-03-30T04:15:39.012Z,11.99
2023-03-30T04:18:05.412Z,12.03
2023-03-30T04:20:31.872Z,12.04
2023-03-30T04:22:58.128Z,12.08
2023-03-30T04:25:24.404Z,12.14
2023-03-30T04:27:50.669Z,12.11
2023-03-30T04:30:16.941Z,12.08
2023-03-30T04:32:43.329Z,12.13
2023-03-30T04:35:09.605Z,12.17
2023-03-30T04:37:35.886Z,12.17
2023-03-30T04:40:02.137Z,12.12
2023-03-30T04:42:28.397Z,12.09
2023-03-30T04:44:54.684Z,12.06
2023-03-30T04:47:20.991Z,12.03
2023-03-30T04:49:47.251Z,12.00
2023-03-30T04:52:13.510Z,11.94
2023-03-30T04:54:39.801Z,11.92
2023-03-30T04:57:06.067Z,11.90
2023-03-30T04:59:32.346Z,11.88
2023-03-30T05:01:58.685Z,11.87
2023-03-30T05:04:24.939Z,11.86
2023-03-30T05:06:51.275Z,11.86
2023-03-30T05:09:17.569Z,11.87
2023-03-30T05:11:43.864Z,11.79
2023-03-30T05:14:10.173Z,11.82
2023-03-30T05:16:36.422Z,11.82
2023-03-30T05:19:02.711Z,11.83
2023-03-30T05:21:28.988Z,11.83
2023-03-30T05:23:55.272Z,11.80
2023-03-30T05:26:21.619Z,11.69
2023-03-30T05:28:47.989Z,11.72
2023-03-30T05:31:14.428Z,11.65
2023-03-30T05:33:42.723Z,11.63
2023-03-30T05:36:10.176Z,11.63
2023-03-30T05:38:36.480Z,11.63
2023-03-30T05:41:03.019Z,11.64
2023-03-30T05:43:29.439Z,11.65
2023-03-30T05:45:55.732Z,11.68
2023-03-30T05:48:22.021Z,11.62
2023-03-30T05:50:48.308Z,11.59
2023-03-30T05:53:14.589Z,11.59
2023-03-30T05:55:40.848Z,11.51
2023-03-30T05:58:07.135Z,11.56
2023-03-30T06:00:33.408Z,11.57
2023-03-30T06:02:59.760Z,11.62
2023-03-30T06:05:26.093Z,11.63
2023-03-30T06:07:52.401Z,11.69
2023-03-30T06:10:18.688Z,11.72
2023-03-30T06:12:44.940Z,11.71
2023-03-30T06:15:11.191Z,11.76
2023-03-30T06:17:37.525Z,11.76
2023-03-30T06:20:03.811Z,11.76
2023-03-30T06:22:31.902Z,11.76
2023-03-30T06:24:58.256Z,11.79
2023-03-30T06:27:24.524Z,11.79
2023-03-30T06:29:50.817Z,11.82
2023-03-30T06:32:17.172Z,11.85
2023-03-30T06:34:43.493Z,11.86
2023-03-30T06:37:09.776Z,11.88
2023-03-30T06:39:36.051Z,11.89
2023-03-30T06:42:02.326Z,11.89
2023-03-30T06:44:28.609Z,11.91
2023-03-30T06:46:54.872Z,11.93
2023-03-30T06:49:21.174Z,12.00
2023-03-30T06:51:47.461Z,12.10
2023-03-30T06:54:13.729Z,12.08
2023-03-30T06:56:40.122Z,12.05
2023-03-30T06:59:06.563Z,12.01
2023-03-30T07:01:32.923Z,12.01
2023-03-30T07:03:59.388Z,12.01
2023-03-30T07:06:25.781Z,12.01
2023-03-30T07:08:52.061Z,12.03
2023-03-30T07:11:18.338Z,12.07
2023-03-30T07:13:44.633Z,12.06
2023-03-30T07:16:10.884Z,12.07
2023-03-30T07:18:37.162Z,12.08
2023-03-30T07:21:03.714Z,12.11
2023-03-30T07:23:30.138Z,12.10
2023-03-30T07:25:56.411Z,12.04
2023-03-30T07:28:22.664Z,12.05
2023-03-30T07:30:48.992Z,12.07
2023-03-30T07:33:15.286Z,11.95
2023-03-30T07:35:41.651Z,11.94
2023-03-30T07:38:07.942Z,11.97
2023-03-30T07:40:34.400Z,11.72
2023-03-30T07:43:00.848Z,11.82
2023-03-30T07:45:27.157Z,11.57
2023-03-30T07:47:53.509Z,11.51
2023-03-30T07:50:19.862Z,11.57
2023-03-30T07:52:46.132Z,11.46
2023-03-30T07:55:12.487Z,11.43
2023-03-30T07:57:38.824Z,11.43
2023-03-30T08:00:05.085Z,11.25
2023-03-30T08:02:31.393Z,11.32
2023-03-30T08:04:57.913Z,11.34
2023-03-30T08:07:24.338Z,11.36
2023-03-30T08:09:50.598Z,11.32
2023-03-30T08:12:16.843Z,11.49
2023-03-30T08:14:43.109Z,11.38
2023-03-30T08:17:09.400Z,11.49
2023-03-30T08:19:35.688Z,11.50
2023-03-30T08:22:01.968Z,11.51
2023-03-30T08:24:28.260Z,11.61
2023-03-30T08:26:54.861Z,11.58
2023-03-30T08:29:21.190Z,11.53
2023-03-30T08:31:47.794Z,11.47
2023-03-30T08:34:14.124Z,11.46
2023-03-30T08:36:40.395Z,11.40
2023-03-30T08:39:06.693Z,11.33
2023-03-30T08:41:32.968Z,11.42
2023-03-30T08:43:59.241Z,11.57
2023-03-30T08:46:25.562Z,11.67
2023-03-30T08:48:51.894Z,11.77
2023-03-30T08:51:18.166Z,11.85
2023-03-30T08:53:44.431Z,11.95
2023-03-30T08:56:10.679Z,12.05
2023-03-30T08:58:36.993Z,12.03
2023-03-30T09:01:03.493Z,12.09
2023-03-30T09:03:30.134Z,12.13
2023-03-30T09:05:56.433Z,12.23
2023-03-30T09:08:22.779Z,12.31
2023-03-30T09:10:49.242Z,12.20
2023-03-30T09:13:15.522Z,12.34
2023-03-30T09:15:41.779Z,12.39
2023-03-30T09:18:08.113Z,12.37
2023-03-30T09:20:34.457Z,12.20
2023-03-30T09:23:00.733Z,12.24
2023-03-30T09:25:27.027Z,12.31
2023-03-30T09:27:53.301Z,12.49
2023-03-30T09:30:19.592Z,12.31
2023-03-30T09:32:45.878Z,12.41
2023-03-30T09:35:12.152Z,12.26
2023-03-30T09:37:38.468Z,12.38
2023-03-30T09:40:04.759Z,12.27
2023-03-30T09:42:31.038Z,12.35
2023-03-30T09:44:57.313Z,12.22
2023-03-30T09:47:23.631Z,12.12
2023-03-30T09:49:49.915Z,12.13
2023-03-30T09:52:16.207Z,12.18
2023-03-30T09:54:42.487Z,12.21
2023-03-30T09:57:08.858Z,12.22
2023-03-30T09:59:35.197Z,12.24
2023-03-30T10:02:01.502Z,12.32
2023-03-30T10:04:27.835Z,12.25
2023-03-30T10:06:54.159Z,12.34
2023-03-30T10:09:20.424Z,12.45
2023-03-30T10:11:46.683Z,12.60
2023-03-30T10:14:13.056Z,12.59
2023-03-30T10:16:39.376Z,12.65
2023-03-30T10:19:05.671Z,12.68
2023-03-30T10:21:31.951Z,12.79
2023-03-30T10:23:58.221Z,12.72
2023-03-30T10:26:24.500Z,12.48
2023-03-30T10:28:50.746Z,12.50
2023-03-30T10:31:17.087Z,12.63
2023-03-30T10:33:43.392Z,12.60
2023-03-30T10:36:09.808Z,12.58
2023-03-30T10:38:36.156Z,12.52
2023-03-30T10:41:02.430Z,12.55
2023-03-30T10:43:28.710Z,12.75
2023-03-30T10:45:54.986Z,12.73
2023-03-30T10:48:21.363Z,12.74
2023-03-30T10:50:47.665Z,12.82
2023-03-30T10:53:13.936Z,12.79
2023-03-30T10:55:40.202Z,12.76
2023-03-30T10:58:06.483Z,12.90
2023-03-30T11:00:32.797Z,12.88
2023-03-30T11:02:59.210Z,12.88
2023-03-30T11:05:25.544Z,12.84
2023-03-30T11:07:51.869Z,12.78
2023-03-30T11:10:18.232Z,12.93
2023-03-30T11:12:44.535Z,12.94
2023-03-30T11:15:10.803Z,12.87
2023-03-30T11:17:37.107Z,12.82
2023-03-30T11:20:03.394Z,12.62
2023-03-30T11:22:32.036Z,12.76
2023-03-30T11:24:59.656Z,12.81
2023-03-30T11:27:25.905Z,12.83
2023-03-30T11:29:52.190Z,12.90
2023-03-30T11:32:18.460Z,12.81
2023-03-30T11:34:44.795Z,12.88
2023-03-30T11:37:11.048Z,13.04
2023-03-30T11:39:37.345Z,12.95
2023-03-30T11:42:03.645Z,13.01
2023-03-30T11:44:29.905Z,13.05
2023-03-30T11:46:56.204Z,13.16
2023-03-30T11:49:22.471Z,13.15
2023-03-30T11:51:48.777Z,13.19
2023-03-30T11:54:15.081Z,13.30
2023-03-30T11:56:43.246Z,13.40
2023-03-30T11:59:09.603Z,13.37
2023-03-30T12:01:35.872Z,13.45
2023-03-30T12:04:02.348Z,13.50
2023-03-30T12:06:28.692Z,13.47
2023-03-30T12:08:54.960Z,13.31
2023-03-30T12:11:21.234Z,13.39
2023-03-30T12:13:51.456Z,13.51
2023-03-30T12:16:18.618Z,13.47
2023-03-30T12:18:44.903Z,13.42
2023-03-30T12:21:11.193Z,13.59
2023-03-30T12:23:37.468Z,13.65
2023-03-30T12:26:04.008Z,13.70
2023-03-30T12:28:44.260Z,13.72
2023-03-30T12:31:16.752Z,13.68
2023-03-30T12:33:43.060Z,13.76
2023-03-30T12:36:09.323Z,13.78
2023-03-30T12:38:35.642Z,13.73
2023-03-30T12:41:01.895Z,13.72
2023-03-30T12:43:28.220Z,13.66
2023-03-30T12:45:54.585Z,13.70
2023-03-30T12:48:20.919Z,13.75
2023-03-30T12:50:47.169Z,13.77
2023-03-30T12:53:13.425Z,13.72
2023-03-30T12:55:39.710Z,13.73
2023-03-30T12:58:06.000Z,13.81
2023-03-30T13:00:32.296Z,14.10
2023-03-30T13:02:58.604Z,13.95
2023-03-30T13:05:25.007Z,14.10
2023-03-30T13:07:51.274Z,14.31
2023-03-30T13:10:17.594Z,14.39
2023-03-30T13:12:43.881Z,14.45
2023-03-30T13:15:10.169Z,14.60
2023-03-30T13:17:36.432Z,14.77
2023-03-30T13:20:02.727Z,14.85
2023-03-30T13:22:29.036Z,14.92
2023-03-30T13:24:55.310Z,14.99
2023-03-30T13:27:21.610Z,14.91
2023-03-30T13:29:47.894Z,14.84
2023-03-30T13:32:14.186Z,14.96
2023-03-30T13:34:41.366Z,15.00
2023-03-30T13:37:08.569Z,15.02
2023-03-30T13:39:34.885Z,14.98
2023-03-30T13:42:01.137Z,14.96
2023-03-30T13:44:27.393Z,14.96
2023-03-30T13:46:53.717Z,15.00
2023-03-30T13:49:20.021Z,15.04
2023-03-30T13:51:46.307Z,15.04
2023-03-30T13:54:12.613Z,14.90
2023-03-30T13:56:38.904Z,14.79
2023-03-30T13:59:05.158Z,14.79
2023-03-30T14:01:31.511Z,14.92
2023-03-30T14:03:57.835Z,15.03
2023-03-30T14:06:24.134Z,14.73
2023-03-30T14:08:50.402Z,14.81
2023-03-30T14:11:16.663Z,14.88
2023-03-30T14:13:42.933Z,14.97
2023-03-30T14:16:09.352Z,14.95
2023-03-30T14:18:35.672Z,14.97
2023-03-30T14:21:02.033Z,14.98
2023-03-30T14:23:28.328Z,15.10
2023-03-30T14:25:54.605Z,15.06
2023-03-30T14:28:20.861Z,15.21
2023-03-30T14:30:47.137Z,15.21
2023-03-30T14:33:13.503Z,15.24
2023-03-30T14:35:39.853Z,15.33
2023-03-30T14:38:16.422Z,15.35
2023-03-30T14:40:43.248Z,15.39
2023-03-30T14:43:09.576Z,15.44
2023-03-30T14:45:35.891Z,15.46
2023-03-30T14:48:02.242Z,15.54
2023-03-30T14:50:28.571Z,15.47
2023-03-30T14:52:54.854Z,15.63
2023-03-30T14:55:21.138Z,15.71
2023-03-30T14:57:47.434Z,15.66
2023-03-30T15:00:13.693Z,15.77
2023-03-30T15:02:40.033Z,15.91
2023-03-30T15:05:06.447Z,16.00
2023-03-30T15:07:32.732Z,15.98
2023-03-30T15:09:59.024Z,16.06
2023-03-30T15:12:25.316Z,16.05
2023-03-30T15:14:51.590Z,16.11
2023-03-30T15:17:17.873Z,16.15
2023-03-30T15:19:44.141Z,16.23
2023-03-30T15:22:10.427Z,16.29
2023-03-30T15:24:36.685Z,16.35
2023-03-30T15:27:02.985Z,16.36
2023-03-30T15:29:29.253Z,16.46
2023-03-30T15:31:55.513Z,16.44
2023-03-30T15:34:21.793Z,16.40
2023-03-30T15:36:48.031Z,16.35
2023-03-30T15:39:14.348Z,16.34
2023-03-30T15:41:40.646Z,16.35
2023-03-30T15:44:06.945Z,16.35
2023-03-30T15:46:33.246Z,16.34
2023-03-30T15:48:59.586Z,16.29
2023-03-30T15:51:25.849Z,16.28
2023-03-30T15:53:53.736Z,16.29
2023-03-30T15:56:21.863Z,16.27
2023-03-30T15:58:48.118Z,16.28
2023-03-30T16:01:14.413Z,16.14
2023-03-30T16:03:40.783Z,16.21
2023-03-30T16:06:07.107Z,16.19
2023-03-30T16:08:33.364Z,16.23
2023-03-30T16:10:59.635Z,16.25
2023-03-30T16:13:25.901Z,16.28
2023-03-30T16:15:52.247Z,16.35
2023-03-30T16:18:18.553Z,16.29
2023-03-30T16:20:44.835Z,16.24
2023-03-30T16:23:11.095Z,15.93
2023-03-30T16:25:44.686Z,15.79
2023-03-30T16:28:11.282Z,15.82
2023-03-30T16:30:37.586Z,15.77
2023-03-30T16:33:03.992Z,15.77
2023-03-30T16:35:30.310Z,15.75
2023-03-30T16:37:56.766Z,15.67
2023-03-30T16:40:23.066Z,15.61
2023-03-30T16:42:49.359Z,15.60
2023-03-30T16:45:15.680Z,15.58
2023-03-30T16:47:42.017Z,15.54
2023-03-30T16:50:08.336Z,15.54
2023-03-30T16:52:34.639Z,15.60
2023-03-30T16:55:00.937Z,15.61
2023-03-30T16:57:27.253Z,15.67
2023-03-30T16:59:53.529Z,15.66
2023-03-30T17:02:19.779Z,15.63
2023-03-30T17:04:46.089Z,15.60
2023-03-30T17:07:12.337Z,15.54
2023-03-30T17:09:38.685Z,15.37
2023-03-30T17:12:05.016Z,15.42
2023-03-30T17:14:31.312Z,15.43
2023-03-30T17:16:57.759Z,15.32
2023-03-30T17:19:24.130Z,15.31
2023-03-30T17:21:50.492Z,15.26
2023-03-30T17:24:16.900Z,15.26
2023-03-30T17:26:43.248Z,15.28
2023-03-30T17:29:09.705Z,15.12
2023-03-30T17:31:36.097Z,15.09
2023-03-30T17:34:02.505Z,14.96
2023-03-30T17:36:28.794Z,14.82
2023-03-30T17:38:55.044Z,14.80
2023-03-30T17:41:21.318Z,14.80
2023-03-30T17:43:47.624Z,14.75
2023-03-30T17:46:13.980Z,14.72
2023-03-30T17:48:40.309Z,14.64
2023-03-30T17:51:06.750Z,14.65
2023-03-30T17:53:33.288Z,14.65
2023-03-30T17:55:59.629Z,14.63
2023-03-30T17:58:25.909Z,14.61
2023-03-30T18:00:52.194Z,14.55
2023-03-30T18:03:18.549Z,14.54
2023-03-30T18:05:44.918Z,14.50
2023-03-30T18:08:11.216Z,14.51
2023-03-30T18:10:37.489Z,14.52
2023-03-30T18:13:03.785Z,14.51
2023-03-30T18:15:30.043Z,14.50
2023-03-30T18:17:56.476Z,14.51
2023-03-30T18:20:22.826Z,14.48
2023-03-30T18:22:49.206Z,14.45
2023-03-30T18:25:25.609Z,14.43
2023-03-30T18:27:58.131Z,14.43
2023-03-30T18:30:24.396Z,14.40
2023-03-30T18:32:50.696Z,14.39
2023-03-30T18:35:16.978Z,14.37
2023-03-30T18:37:43.296Z,14.37
2023-03-30T18:40:09.590Z,14.38
2023-03-30T18:42:35.851Z,14.38
2023-03-30T18:45:02.183Z,14.40
2023-03-30T18:47:28.529Z,14.42
2023-03-30T18:49:54.901Z,14.50
2023-03-30T18:52:21.182Z,14.48
2023-03-30T18:54:47.500Z,14.46
2023-03-30T18:57:13.857Z,14.46
2023-03-30T18:59:43.102Z,14.44
2023-03-30T19:02:09.406Z,14.44
2023-03-30T19:04:35.672Z,14.43
2023-03-30T19:07:01.935Z,14.42
2023-03-30T19:09:42.237Z,14.42
2023-03-30T19:12:09.523Z,14.39
2023-03-30T19:14:35.893Z,14.39
2023-03-30T19:17:02.281Z,14.36
2023-03-30T19:19:29.936Z,14.34
2023-03-30T19:21:56.235Z,14.32
2023-03-30T19:24:22.503Z,14.30
2023-03-30T19:26:48.827Z,14.32
2023-03-30T19:29:15.179Z,14.31
2023-03-30T19:31:41.653Z,14.29
2023-03-30T19:34:07.939Z,14.30
2023-03-30T19:36:34.227Z,14.28
2023-03-30T19:39:00.492Z,14.31
2023-03-30T19:41:26.805Z,14.34
2023-03-30T19:43:53.101Z,14.27
2023-03-30T19:46:19.482Z,14.23
2023-03-30T19:48:45.781Z,14.18
2023-03-30T19:51:12.026Z,14.16
2023-03-30T19:53:38.266Z,14.11
2023-03-30T19:56:06.285Z,14.10
2023-03-30T19:58:32.612Z,14.07
2023-03-30T20:00:58.875Z,14.06
2023-03-30T20:03:26.574Z,14.04
2023-03-30T20:05:53.029Z,14.01
2023-03-30T20:08:24.552Z,14.01
2023-03-30T20:10:53.251Z,14.00
2023-03-30T20:13:20.904Z,13.99
2023-03-30T20:15:49.440Z,13.98
2023-03-30T20:18:17.801Z,13.95
2023-03-30T20:20:45.440Z,13.98
2023-03-30T20:23:12.159Z,13.97
2023-03-30T20:25:38.459Z,14.00
2023-03-30T20:28:04.724Z,14.04
2023-03-30T20:30:30.994Z,14.04
2023-03-30T20:33:06.840Z,14.05
2023-03-30T20:35:36.892Z,14.06
2023-03-30T20:38:03.205Z,14.06
2023-03-30T20:40:29.471Z,14.05
2023-03-30T20:42:55.761Z,14.04
2023-03-30T20:45:22.219Z,14.01
2023-03-30T20:47:48.749Z,14.02
2023-03-30T20:50:15.052Z,14.04
2023-03-30T20:52:41.345Z,14.03
2023-03-30T20:55:07.626Z,14.02
2023-03-30T20:57:33.894Z,14.01
2023-03-30T21:00:00.200Z,14.00
2023-03-30T21:02:26.485Z,13.99
2023-03-30T21:04:52.783Z,13.96
2023-03-30T21:07:19.069Z,13.94
2023-03-30T21:09:46.374Z,13.91
2023-03-30T21:12:12.659Z,13.90
2023-03-30T21:14:38.999Z,13.86
2023-03-30T21:17:05.351Z,13.85
2023-03-30T21:19:31.765Z,13.86
2023-03-30T21:21:58.060Z,13.88
2023-03-30T21:24:24.315Z,13.87
2023-03-30T21:26:50.592Z,13.83
2023-03-30T21:29:17.009Z,13.80
2023-03-30T21:31:43.299Z,13.78
2023-03-30T21:34:09.568Z,13.78
2023-03-30T21:36:35.943Z,13.77
2023-03-30T21:39:02.417Z,13.76
2023-03-30T21:41:28.756Z,13.75
2023-03-30T21:43:55.080Z,13.74
2023-03-30T21:46:21.418Z,13.74
2023-03-30T21:48:47.706Z,13.77
2023-03-30T21:51:14.002Z,13.75
2023-03-30T21:53:40.367Z,13.74
2023-03-30T21:56:06.791Z,13.74
2023-03-30T21:58:33.221Z,13.75
2023-03-30T22:01:11.113Z,13.70
2023-03-30T22:03:38.541Z,13.68
2023-03-30T22:06:05.071Z,13.66
2023-03-30T22:08:31.437Z,13.61
2023-03-30T22:10:57.732Z,13.59
2023-03-30T22:13:24.017Z,13.57
2023-03-30T22:15:50.306Z,13.54
2023-03-30T22:18:16.605Z,13.54
2023-03-30T22:20:42.908Z,13.53
2023-03-30T22:23:09.181Z,13.56
2023-03-30T22:25:35.466Z,13.56
2023-03-30T22:28:01.752Z,13.54
2023-03-30T22:30:28.043Z,13.54
2023-03-30T22:32:54.383Z,13.54
2023-03-30T22:35:20.675Z,13.54
2023-03-30T22:37:46.921Z,13.53
2023-03-30T22:40:13.192Z,13.52
2023-03-30T22:42:39.446Z,13.50
2023-03-30T22:45:05.711Z,13.48
2023-03-30T22:47:32.013Z,13.44
2023-03-30T22:49:58.272Z,13.41
2023-03-30T22:52:24.565Z,13.38
2023-03-30T22:54:50.830Z,13.37
2023-03-30T22:57:17.168Z,13.38
2023-03-30T22:59:43.491Z,13.41
2023-03-30T23:02:09.783Z,13.41
2023-03-30T23:04:36.046Z,13.41
2023-03-30T23:07:02.297Z,13.42
2023-03-30T23:09:28.577Z,13.41
2023-03-30T23:11:54.861Z,13.35
2023-03-30T23:14:21.135Z,13.33
2023-03-30T23:16:47.420Z,13.28
2023-03-30T23:19:13.736Z,13.21
2023-03-30T23:21:39.997Z,13.23
2023-03-30T23:24:06.247Z,13.21
2023-03-30T23:26:32.528Z,13.20
2023-03-30T23:28:58.827Z,13.19
2023-03-30T23:31:25.130Z,13.18
2023-03-30T23:33:51.418Z,13.15
2023-03-30T23:36:17.764Z,13.11
2023-03-30T23:38:44.107Z,13.09
2023-03-30T23:41:10.384Z,13.10
2023-03-30T23:43:36.641Z,13.14
2023-03-30T23:46:02.958Z,13.13
2023-03-30T23:48:29.392Z,13.10
2023-03-30T23:50:55.686Z,13.09
2023-03-30T23:53:21.965Z,13.10
2023-03-30T23:55:48.261Z,13.07
2023-03-30T23:58:14.534Z,13.03
